George S. — A8TJ9 — position and weather

sailwx.info

Track history (hours):
 
Tides and Currents Weather Stations Pressure Air Temp Water Temp Dewpoint Dewpoint Depression Visibility Wind Speed Wind Dir Waves Ship Positions

George S.

Last reported at 2016-Aug-27 02:14 UTC. Time now 2016-Aug-27 16:52 UTC.
Position N 41°13' W 032°30'.

Length 274 m; draft 15.1 m.

Type: Tanker. MMSI: 636014372.

Date/timePositionNaut miles runAvg speedWind from/ knotsBaromVisibWave heightAir tempDewpointWater temp
2016-Aug-27 02:14N 41°13' W 032°30'20012.5
2016-Aug-26 10:17N 40°37' W 028°10'1012.2
2016-Aug-26 09:30N 40°34' W 027°58'1111.4
2016-Aug-26 08:33N 40°30' W 027°44'11511.5
2016-Aug-25 22:32N 40°03' W 025°19'57312.4
2016-Aug-24 00:24N 37°15' W 013°37'1113.0
2016-Aug-23 23:33N 37°11' W 013°24'1313.0
2016-Aug-23 22:33N 37°07' W 013°09'1313.1
2016-Aug-23 21:33N 37°03' W 012°53'1312.6
2016-Aug-23 20:33N 36°59' W 012°38'1212.4
2016-Aug-23 19:33N 36°55' W 012°24'1312.9
2016-Aug-23 18:33N 36°51' W 012°09'1312.7
2016-Aug-23 17:33N 36°46' W 011°54'1313.2
2016-Aug-23 16:33N 36°42' W 011°38'1313.1
2016-Aug-23 15:33N 36°38' W 011°23'1413.0
2016-Aug-23 14:29N 36°33' W 011°06'1212.8
2016-Aug-23 13:33N 36°29' W 010°52'1212.2
2016-Aug-23 12:33N 36°25' W 010°38'1212.3
2016-Aug-23 11:33N 36°20' W 010°24'1212.4
2016-Aug-23 10:32N 36°15' W 010°10'1212.2
2016-Aug-23 09:31N 36°13' W 009°55'1312.5
2016-Aug-23 08:28N 36°09' W 009°39'19912.5
2016-Aug-22 16:33N 35°59' W 005°33'1111.3
2016-Aug-22 15:33N 36°03' W 005°20'2 2.3
2016-Aug-22 14:33N 36°03' W 005°17'4 3.7
2016-Aug-22 13:33N 36°04' W 005°13'  
2016-Aug-20 02:25N 36°04' W 000°10'1011.4
2016-Aug-20 01:30N 36°14' W 000°07'4 1.4
2016-Aug-19 22:27N 36°10' W 000°09'1 1.5
2016-Aug-19 21:32N 36°09' W 000°10'2 1.7
2016-Aug-19 20:29N 36°08' W 000°12'1 1.4
2016-Aug-19 19:30N 36°07' W 000°13'8 8.2
2016-Aug-19 18:27N 35°58' W 000°12'10 7.3
2016-Aug-19 17:06N 36°08' W 000°12'712.4
2016-Aug-19 16:33N 36°15' W 000°11'1313.1
2016-Aug-19 15:33N 36°28' W 000°10'1313.5
2016-Aug-19 14:33N 36°42' W 000°08'1413.8
2016-Aug-19 13:33N 36°55' W 000°06'2013.7
2016-Aug-19 12:06N 37°15' W 000°03'713.5
2016-Aug-19 11:33N 37°22' W 000°02'1110.7
2016-Aug-19 10:33N 37°33' W 000°00'1 0.3
2016-Aug-19 08:13N 37°32' E 000°00'0 0.3
2016-Aug-19 07:33N 37°32' E 000°00'0 0.2
2016-Aug-19 06:33N 37°32' E 000°00'0 0.3
2016-Aug-19 05:33N 37°32' E 000°00'0 0.4
2016-Aug-19 04:33N 37°32' W 000°00'0 0.4
2016-Aug-19 03:33N 37°31' W 000°01'0 0.4
2016-Aug-19 02:33N 37°31' W 000°01'0 0.4
2016-Aug-19 01:33N 37°31' W 000°01'1 0.5
2016-Aug-19 00:33N 37°30' W 000°02'0 0.4
2016-Aug-18 23:33N 37°30' W 000°02'0 0.2
2016-Aug-18 22:33N 37°30' W 000°01'0 0.2
2016-Aug-18 21:33N 37°29' W 000°01'0 0.1
2016-Aug-18 20:34N 37°29' W 000°01'0 0.3
2016-Aug-18 19:33N 37°29' W 000°01'0 0.1
2016-Aug-18 18:32N 37°29' W 000°01'0 0.4
2016-Aug-18 17:33N 37°29' W 000°00'2 1.6
2016-Aug-18 16:33N 37°31' W 000°00'1111.2
2016-Aug-18 15:33N 37°35' W 000°14'5 4.7
2016-Aug-18 14:33N 37°34' W 000°19'1 0.9
2016-Aug-18 13:33N 37°33' W 000°19'1 0.9
2016-Aug-18 12:33N 37°32' W 000°19'1 0.9
2016-Aug-18 11:33N 37°31' W 000°19'1 0.9
2016-Aug-18 10:24N 37°30' W 000°19'1 0.9
2016-Aug-18 09:25N 37°29' W 000°19'1 0.9
2016-Aug-18 08:31N 37°29' W 000°19'1 1.0
2016-Aug-18 07:34N 37°28' W 000°19'1 1.0
2016-Aug-18 06:33N 37°27' W 000°19'1 1.1
2016-Aug-18 05:34N 37°26' W 000°19'1 1.1
2016-Aug-18 04:33N 37°25' W 000°19'1 1.0
2016-Aug-18 03:32N 37°24' W 000°20'1 0.9
2016-Aug-18 02:29N 37°23' W 000°20'1 0.9
2016-Aug-18 01:33N 37°22' W 000°20'1 0.8
2016-Aug-18 00:33N 37°21' W 000°20'1 0.8
2016-Aug-17 23:23N 37°20' W 000°20'1 0.7
2016-Aug-17 22:32N 37°19' W 000°20'1 0.7
2016-Aug-17 21:32N 37°19' W 000°20'1 0.7
2016-Aug-17 20:33N 37°18' W 000°20'1 0.6
2016-Aug-17 19:33N 37°18' W 000°20'1 0.6
2016-Aug-17 18:33N 37°17' W 000°21'1 0.6
2016-Aug-17 17:33N 37°16' W 000°21'1 0.7
2016-Aug-17 16:33N 37°16' W 000°21'1 0.6
2016-Aug-17 15:33N 37°15' W 000°21'1 0.6
2016-Aug-17 14:33N 37°15' W 000°21'1 0.6
2016-Aug-17 13:32N 37°14' W 000°22'1 0.6
2016-Aug-17 12:34N 37°13' W 000°22'1 0.5
2016-Aug-17 11:29N 37°13' W 000°22'0 0.3
2016-Aug-17 10:32N 37°13' W 000°22'0 0.1
2016-Aug-17 09:33N 37°13' W 000°22'0 0.2
2016-Aug-17 08:33N 37°12' W 000°22'0 0.1
2016-Aug-17 07:33N 37°12' W 000°22'0 0.0
2016-Aug-17 06:33N 37°12' W 000°22'0 0.1
2016-Aug-17 05:33N 37°12' W 000°22'0 0.1
2016-Aug-17 04:33N 37°12' W 000°22'0 0.2
2016-Aug-17 03:30N 37°12' W 000°22'0 0.2
2016-Aug-17 02:33N 37°12' W 000°22'  
Track history (hours):
 
Tides and Currents Weather Stations Pressure Air Temp Water Temp Dewpoint Dewpoint Depression Visibility Wind Speed Wind Dir Waves Ship Positions

George S.

Last reported at 2016-Aug-27 02:14 UTC. Time now 2016-Aug-27 16:52 UTC.
Position N 41°13' W 032°30'.

Length 274 m; draft 15.1 m.

Type: Tanker. MMSI: 636014372.

Date/timePositionNaut miles runAvg speedWind from/ knotsBaromVisibWave heightAir tempDewpointWater temp
2016-Aug-27 02:14N 41°13' W 032°30'20012.5
2016-Aug-26 10:17N 40°37' W 028°10'1012.2
2016-Aug-26 09:30N 40°34' W 027°58'1111.4
2016-Aug-26 08:33N 40°30' W 027°44'11511.5
2016-Aug-25 22:32N 40°03' W 025°19'57312.4
2016-Aug-24 00:24N 37°15' W 013°37'1113.0
2016-Aug-23 23:33N 37°11' W 013°24'1313.0
2016-Aug-23 22:33N 37°07' W 013°09'1313.1
2016-Aug-23 21:33N 37°03' W 012°53'1312.6
2016-Aug-23 20:33N 36°59' W 012°38'1212.4
2016-Aug-23 19:33N 36°55' W 012°24'1312.9
2016-Aug-23 18:33N 36°51' W 012°09'1312.7
2016-Aug-23 17:33N 36°46' W 011°54'1313.2
2016-Aug-23 16:33N 36°42' W 011°38'1313.1
2016-Aug-23 15:33N 36°38' W 011°23'1413.0
2016-Aug-23 14:29N 36°33' W 011°06'1212.8
2016-Aug-23 13:33N 36°29' W 010°52'1212.2
2016-Aug-23 12:33N 36°25' W 010°38'1212.3
2016-Aug-23 11:33N 36°20' W 010°24'1212.4
2016-Aug-23 10:32N 36°15' W 010°10'1212.2
2016-Aug-23 09:31N 36°13' W 009°55'1312.5
2016-Aug-23 08:28N 36°09' W 009°39'19912.5
2016-Aug-22 16:33N 35°59' W 005°33'1111.3
2016-Aug-22 15:33N 36°03' W 005°20'2 2.3
2016-Aug-22 14:33N 36°03' W 005°17'4 3.7
2016-Aug-22 13:33N 36°04' W 005°13'  
2016-Aug-20 02:25N 36°04' W 000°10'1011.4
2016-Aug-20 01:30N 36°14' W 000°07'4 1.4
2016-Aug-19 22:27N 36°10' W 000°09'1 1.5
2016-Aug-19 21:32N 36°09' W 000°10'2 1.7
2016-Aug-19 20:29N 36°08' W 000°12'1 1.4
2016-Aug-19 19:30N 36°07' W 000°13'8 8.2
2016-Aug-19 18:27N 35°58' W 000°12'10 7.3
2016-Aug-19 17:06N 36°08' W 000°12'712.4
2016-Aug-19 16:33N 36°15' W 000°11'1313.1
2016-Aug-19 15:33N 36°28' W 000°10'1313.5
2016-Aug-19 14:33N 36°42' W 000°08'1413.8
2016-Aug-19 13:33N 36°55' W 000°06'2013.7
2016-Aug-19 12:06N 37°15' W 000°03'713.5
2016-Aug-19 11:33N 37°22' W 000°02'1110.7
2016-Aug-19 10:33N 37°33' W 000°00'1 0.3
2016-Aug-19 08:13N 37°32' E 000°00'0 0.3
2016-Aug-19 07:33N 37°32' E 000°00'0 0.2
2016-Aug-19 06:33N 37°32' E 000°00'0 0.3
2016-Aug-19 05:33N 37°32' E 000°00'0 0.4
2016-Aug-19 04:33N 37°32' W 000°00'0 0.4
2016-Aug-19 03:33N 37°31' W 000°01'0 0.4
2016-Aug-19 02:33N 37°31' W 000°01'0 0.4
2016-Aug-19 01:33N 37°31' W 000°01'1 0.5
2016-Aug-19 00:33N 37°30' W 000°02'0 0.4
2016-Aug-18 23:33N 37°30' W 000°02'0 0.2
2016-Aug-18 22:33N 37°30' W 000°01'0 0.2
2016-Aug-18 21:33N 37°29' W 000°01'0 0.1
2016-Aug-18 20:34N 37°29' W 000°01'0 0.3
2016-Aug-18 19:33N 37°29' W 000°01'0 0.1
2016-Aug-18 18:32N 37°29' W 000°01'0 0.4
2016-Aug-18 17:33N 37°29' W 000°00'2 1.6
2016-Aug-18 16:33N 37°31' W 000°00'1111.2
2016-Aug-18 15:33N 37°35' W 000°14'5 4.7
2016-Aug-18 14:33N 37°34' W 000°19'1 0.9
2016-Aug-18 13:33N 37°33' W 000°19'1 0.9
2016-Aug-18 12:33N 37°32' W 000°19'1 0.9
2016-Aug-18 11:33N 37°31' W 000°19'1 0.9
2016-Aug-18 10:24N 37°30' W 000°19'1 0.9
2016-Aug-18 09:25N 37°29' W 000°19'1 0.9
2016-Aug-18 08:31N 37°29' W 000°19'1 1.0
2016-Aug-18 07:34N 37°28' W 000°19'1 1.0
2016-Aug-18 06:33N 37°27' W 000°19'1 1.1
2016-Aug-18 05:34N 37°26' W 000°19'1 1.1
2016-Aug-18 04:33N 37°25' W 000°19'1 1.0
2016-Aug-18 03:32N 37°24' W 000°20'1 0.9
2016-Aug-18 02:29N 37°23' W 000°20'1 0.9
2016-Aug-18 01:33N 37°22' W 000°20'1 0.8
2016-Aug-18 00:33N 37°21' W 000°20'1 0.8
2016-Aug-17 23:23N 37°20' W 000°20'1 0.7
2016-Aug-17 22:32N 37°19' W 000°20'1 0.7
2016-Aug-17 21:32N 37°19' W 000°20'1 0.7
2016-Aug-17 20:33N 37°18' W 000°20'1 0.6
2016-Aug-17 19:33N 37°18' W 000°20'1 0.6
2016-Aug-17 18:33N 37°17' W 000°21'1 0.6
2016-Aug-17 17:33N 37°16' W 000°21'1 0.7
2016-Aug-17 16:33N 37°16' W 000°21'1 0.6
2016-Aug-17 15:33N 37°15' W 000°21'1 0.6
2016-Aug-17 14:33N 37°15' W 000°21'1 0.6
2016-Aug-17 13:32N 37°14' W 000°22'1 0.6
2016-Aug-17 12:34N 37°13' W 000°22'1 0.5
2016-Aug-17 11:29N 37°13' W 000°22'0 0.3
2016-Aug-17 10:32N 37°13' W 000°22'0 0.1
2016-Aug-17 09:33N 37°13' W 000°22'0 0.2
2016-Aug-17 08:33N 37°12' W 000°22'0 0.1
2016-Aug-17 07:33N 37°12' W 000°22'0 0.0
2016-Aug-17 06:33N 37°12' W 000°22'0 0.1
2016-Aug-17 05:33N 37°12' W 000°22'0 0.1
2016-Aug-17 04:33N 37°12' W 000°22'0 0.2
2016-Aug-17 03:30N 37°12' W 000°22'0 0.2
2016-Aug-17 02:33N 37°12' W 000°22'  

Dump ship's entire track history